キンシャサ の空港の天気 - METARとTAF

キンシャサ/ヌジリ国際空港 ( FZAA / FIH ) - コンゴ民主共和国 キンシャサ
飛行場実況気象(Metar)
観測時間05/26 19:00 WAT (05/26 18:00 UTC)
風向・風速静穏 0m/s
視程4000m
天気現象もや
全天の4割程度の雲 雲底高度 550m
気温28℃
湿度84%
気圧1012hPa
METARFZAA 261800Z 00000KT 4000 BR SCT018 28/25 Q1012 NOSIG
過去の天気等 Google飛行場航空写真 Wunderground天気予報

過去48時間のMETAR

飛行場予報(TAF)
発表時間: 5/26 12:00 WAT (5/26 11:00 UTC)
予報対象時間: 26日13時 WAT ~ 27日19時 WAT
風向・風速西 3m/s
視程6000m
全天の8割程度の雲 雲底高度 670m
26日15時 WAT ~ 26日17時 WAT に徐々に
少しの雲 雲底高度 700m
少しの積乱雲 雲底高度 910m
26日18時 WAT から 確率 30% で
天気現象
27日0時 WAT ~ 27日3時 WAT に徐々に
視程4000m
天気現象もや
全天の4割程度の雲 雲底高度 430m
27日9時 WAT ~ 27日12時 WAT に徐々に
視程7000m
天気現象運行に影響にある天気現象が終了
全天の4割程度の雲 雲底高度 700m
TAF COR FZAA 261100Z 2612/2718 26006KT 6000 BKN022
BECMG 2614/2616 FEW023 FEW030CB
PROB30 2617/2621 TS
BECMG 2623/2702 4000 BR SCT014
BECMG 2708/2711 7000 NSW SCT023